createdAt,value
2023-11-26T00:01:55.018Z,2.04
2023-11-26T00:04:21.794Z,2.02
2023-11-26T00:06:48.606Z,2.06
2023-11-26T00:09:16.423Z,2.05
2023-11-26T00:11:44.083Z,2.05
2023-11-26T00:14:10.803Z,2.01
2023-11-26T00:16:38.698Z,2.03
2023-11-26T00:19:06.152Z,2.01
2023-11-26T00:21:35.835Z,1.99
2023-11-26T00:24:02.745Z,1.97
2023-11-26T00:26:29.871Z,1.92
2023-11-26T00:28:56.621Z,1.92
2023-11-26T00:31:23.282Z,1.91
2023-11-26T00:33:50.029Z,1.90
2023-11-26T00:36:17.457Z,1.88
2023-11-26T00:38:45.762Z,1.88
2023-11-26T00:41:14.356Z,1.89
2023-11-26T00:43:41.605Z,1.89
2023-11-26T00:46:08.800Z,1.90
2023-11-26T00:48:35.477Z,1.91
2023-11-26T00:51:02.169Z,1.91
2023-11-26T00:53:29.022Z,1.87
2023-11-26T00:55:55.764Z,1.86
2023-11-26T00:58:22.521Z,1.86
2023-11-26T01:00:49.319Z,1.86
2023-11-26T01:03:16.437Z,1.81
2023-11-26T01:05:43.445Z,1.78
2023-11-26T01:08:10.096Z,1.80
2023-11-26T01:10:36.836Z,1.78
2023-11-26T01:13:03.514Z,1.77
2023-11-26T01:15:30.182Z,1.76
2023-11-26T01:17:57.120Z,1.73
2023-11-26T01:20:23.946Z,1.68
2023-11-26T01:22:50.694Z,1.61
2023-11-26T01:25:17.517Z,1.56
2023-11-26T01:27:44.385Z,1.58
2023-11-26T01:30:11.666Z,1.57
2023-11-26T01:32:38.414Z,1.59
2023-11-26T01:35:05.982Z,1.53
2023-11-26T01:37:34.305Z,1.53
2023-11-26T01:40:01.187Z,1.52
2023-11-26T01:42:27.947Z,1.55
2023-11-26T01:44:54.651Z,1.58
2023-11-26T01:47:21.712Z,1.57
2023-11-26T01:49:48.783Z,1.55
2023-11-26T01:52:16.023Z,1.52
2023-11-26T01:54:43.819Z,1.58
2023-11-26T01:57:15.529Z,1.61
2023-11-26T01:59:42.435Z,1.58
2023-11-26T02:02:09.176Z,1.63
2023-11-26T02:04:36.990Z,1.64
2023-11-26T02:07:04.871Z,1.63
2023-11-26T02:09:31.636Z,1.61
2023-11-26T02:11:58.337Z,1.57
2023-11-26T02:14:25.131Z,1.59
2023-11-26T02:16:52.199Z,1.58
2023-11-26T02:19:39.498Z,1.61
2023-11-26T02:22:09.623Z,1.59
2023-11-26T02:24:41.589Z,1.55
2023-11-26T02:27:08.363Z,1.53
2023-11-26T02:29:35.666Z,1.49
2023-11-26T02:32:02.367Z,1.47
2023-11-26T02:34:29.084Z,1.46
2023-11-26T02:36:55.785Z,1.48
2023-11-26T02:39:22.440Z,1.44
2023-11-26T02:41:49.082Z,1.46
2023-11-26T02:44:15.816Z,1.46
2023-11-26T02:46:44.190Z,1.43
2023-11-26T02:49:11.057Z,1.43
2023-11-26T02:51:37.981Z,1.39
2023-11-26T02:54:04.745Z,1.38
2023-11-26T02:56:31.480Z,1.34
2023-11-26T02:58:58.364Z,1.30
2023-11-26T03:01:28.125Z,1.27
2023-11-26T03:03:54.905Z,1.22
2023-11-26T03:06:24.335Z,1.24
2023-11-26T03:09:00.892Z,1.26
2023-11-26T03:11:47.225Z,1.22
2023-11-26T03:14:15.369Z,1.15
2023-11-26T03:16:48.501Z,1.14
2023-11-26T03:19:16.087Z,1.15
2023-11-26T03:21:49.324Z,1.13
2023-11-26T03:24:18.435Z,1.14
2023-11-26T03:26:45.157Z,1.07
2023-11-26T03:29:11.927Z,1.05
2023-11-26T03:31:38.787Z,1.04
2023-11-26T03:34:09.595Z,1.01
2023-11-26T03:36:38.044Z,0.99
2023-11-26T03:39:05.154Z,0.96
2023-11-26T03:41:32.126Z,0.95
2023-11-26T03:43:58.968Z,0.94
2023-11-26T03:46:25.652Z,0.93
2023-11-26T03:48:53.192Z,0.90
2023-11-26T03:51:24.615Z,0.89
2023-11-26T03:53:51.337Z,0.89
2023-11-26T03:56:18.162Z,0.90
2023-11-26T03:58:45.297Z,0.86
2023-11-26T04:01:12.980Z,0.87
2023-11-26T04:03:40.257Z,0.85
2023-11-26T04:06:07.338Z,0.85
2023-11-26T04:08:34.273Z,0.83
2023-11-26T04:11:01.131Z,0.85
2023-11-26T04:13:30.674Z,0.84
2023-11-26T04:16:00.056Z,0.84
2023-11-26T04:18:28.846Z,0.81
2023-11-26T04:20:56.425Z,0.77
2023-11-26T04:23:23.997Z,0.72
2023-11-26T04:25:51.327Z,0.67
2023-11-26T04:28:18.038Z,0.69
2023-11-26T04:30:44.973Z,0.63
2023-11-26T04:33:11.757Z,0.59
2023-11-26T04:35:39.035Z,0.58
2023-11-26T04:38:05.776Z,0.56
2023-11-26T04:40:32.495Z,0.52
2023-11-26T04:42:59.272Z,0.49
2023-11-26T04:45:25.887Z,0.50
2023-11-26T04:47:52.610Z,0.45
2023-11-26T04:50:19.882Z,0.38
2023-11-26T04:52:46.574Z,0.33
2023-11-26T04:55:13.926Z,0.28
2023-11-26T04:57:40.637Z,0.23
2023-11-26T05:00:13.128Z,0.02
2023-11-26T05:02:41.922Z,0.13
2023-11-26T05:05:11.177Z,0.13
2023-11-26T05:07:38.679Z,0.11
2023-11-26T05:10:09.673Z,0.08
2023-11-26T05:12:36.806Z,0.04
2023-11-26T05:15:10.023Z,0.02
2023-11-26T05:17:36.832Z,0.02
2023-11-26T05:20:04.443Z,-0.03
2023-11-26T05:22:31.138Z,-0.02
2023-11-26T05:24:57.827Z,-0.06
2023-11-26T05:27:24.461Z,-0.12
2023-11-26T05:29:51.140Z,-0.11
2023-11-26T05:32:17.906Z,-0.14
2023-11-26T05:34:44.684Z,-0.13
2023-11-26T05:37:12.922Z,-0.14
2023-11-26T05:39:39.749Z,-0.15
2023-11-26T05:42:07.010Z,-0.16
2023-11-26T05:44:33.746Z,-0.18
2023-11-26T05:47:00.536Z,-0.22
2023-11-26T05:49:27.810Z,-0.21
2023-11-26T05:51:58.015Z,-0.20
2023-11-26T05:54:25.456Z,-0.22
2023-11-26T05:56:52.086Z,-0.21
2023-11-26T05:59:18.731Z,-0.18
2023-11-26T06:01:45.815Z,-0.18
2023-11-26T06:04:12.587Z,-0.15
2023-11-26T06:06:39.280Z,-0.17
2023-11-26T06:09:07.011Z,-0.22
2023-11-26T06:11:33.747Z,-0.23
2023-11-26T06:14:00.551Z,-0.25
2023-11-26T06:16:27.406Z,-0.25
2023-11-26T06:18:54.057Z,-0.32
2023-11-26T06:21:20.823Z,-0.30
2023-11-26T06:23:47.834Z,-0.37
2023-11-26T06:26:18.440Z,-0.45
2023-11-26T06:28:45.130Z,-0.53
2023-11-26T06:31:20.244Z,-0.61
2023-11-26T06:33:48.077Z,-0.62
2023-11-26T06:36:25.519Z,-0.65
2023-11-26T06:38:53.215Z,-0.75
2023-11-26T06:41:28.879Z,-0.76
2023-11-26T06:43:56.672Z,-0.86
2023-11-26T06:46:24.693Z,-0.81
2023-11-26T06:48:52.286Z,-0.86
2023-11-26T06:51:22.575Z,-0.92
2023-11-26T06:53:50.416Z,-1.01
2023-11-26T06:56:17.625Z,-1.08
2023-11-26T06:58:45.975Z,-1.09
2023-11-26T07:01:13.017Z,-1.07
2023-11-26T07:03:40.500Z,-1.05
2023-11-26T07:06:08.911Z,-1.05
2023-11-26T07:08:40.634Z,-1.09
2023-11-26T07:11:15.805Z,-1.08
2023-11-26T07:13:43.467Z,-1.09
2023-11-26T07:16:10.353Z,-1.14
2023-11-26T07:18:37.075Z,-1.17
2023-11-26T07:21:04.452Z,-1.18
2023-11-26T07:23:31.073Z,-1.18
2023-11-26T07:25:57.698Z,-1.25
2023-11-26T07:28:25.899Z,-1.19
2023-11-26T07:30:52.612Z,-1.25
2023-11-26T07:33:19.315Z,-1.24
2023-11-26T07:35:45.971Z,-1.27
2023-11-26T07:38:12.662Z,-1.24
2023-11-26T07:40:39.552Z,-1.22
2023-11-26T07:43:06.750Z,-1.26
2023-11-26T07:45:33.505Z,-1.22
2023-11-26T07:48:00.795Z,-1.26
2023-11-26T07:50:27.577Z,-1.20
2023-11-26T07:52:54.979Z,-1.23
2023-11-26T07:55:22.106Z,-1.15
2023-11-26T07:57:48.985Z,-1.08
2023-11-26T08:00:18.716Z,-1.09
2023-11-26T08:02:48.615Z,-1.07
2023-11-26T08:05:20.014Z,-1.05
2023-11-26T08:07:47.311Z,-1.18
2023-11-26T08:10:19.905Z,-1.23
2023-11-26T08:12:47.054Z,-1.01
2023-11-26T08:15:16.270Z,-1.02
2023-11-26T08:17:43.241Z,-1.08
2023-11-26T08:20:12.532Z,-1.16
2023-11-26T08:22:41.830Z,-1.01
2023-11-26T08:25:14.212Z,-0.96
2023-11-26T08:27:41.405Z,-0.98
2023-11-26T08:30:13.953Z,-0.93
2023-11-26T08:32:48.147Z,-0.87
2023-11-26T08:35:15.554Z,-0.89
2023-11-26T08:37:45.507Z,-0.86
2023-11-26T08:40:15.503Z,-0.92
2023-11-26T08:42:42.730Z,-0.78
2023-11-26T08:45:10.500Z,-0.69
2023-11-26T08:47:37.542Z,-0.61
2023-11-26T08:50:05.987Z,-0.68
2023-11-26T08:52:35.324Z,-0.52
2023-11-26T08:55:02.945Z,-0.47
2023-11-26T08:57:29.783Z,-0.43
2023-11-26T08:59:56.536Z,-0.46
2023-11-26T09:02:24.424Z,-0.44
2023-11-26T09:04:51.448Z,-0.40
2023-11-26T09:07:18.974Z,-0.42
2023-11-26T09:09:45.802Z,-0.38
2023-11-26T09:12:12.564Z,-0.32
2023-11-26T09:14:39.343Z,-0.27
2023-11-26T09:17:06.849Z,-0.22
2023-11-26T09:19:34.128Z,-0.20
2023-11-26T09:22:03.753Z,-0.16
2023-11-26T09:24:30.557Z,-0.11
2023-11-26T09:26:57.213Z,-0.17
2023-11-26T09:29:33.482Z,-0.08
2023-11-26T09:32:00.800Z,-0.06
2023-11-26T09:34:27.496Z,0.01
2023-11-26T09:36:54.286Z,0.06
2023-11-26T09:39:20.957Z,0.06
2023-11-26T09:41:47.751Z,0.06
2023-11-26T09:44:21.715Z,0.13
2023-11-26T09:46:51.107Z,0.12
2023-11-26T09:49:17.790Z,0.09
2023-11-26T09:51:52.076Z,0.11
2023-11-26T09:54:20.165Z,0.13
2023-11-26T09:56:47.819Z,0.22
2023-11-26T09:59:33.120Z,0.27
2023-11-26T10:02:02.317Z,0.38
2023-11-26T10:04:44.547Z,0.41
2023-11-26T10:07:18.065Z,0.53
2023-11-26T10:10:17.052Z,0.53
2023-11-26T10:13:07.049Z,0.55
2023-11-26T10:15:36.898Z,0.55
2023-11-26T10:18:10.984Z,0.58
2023-11-26T10:20:46.651Z,0.64
2023-11-26T10:23:16.466Z,0.68
2023-11-26T10:25:44.156Z,0.74
2023-11-26T10:28:20.187Z,0.80
2023-11-26T10:30:46.973Z,0.66
2023-11-26T10:33:14.263Z,0.78
2023-11-26T10:35:54.750Z,0.76
2023-11-26T10:38:29.378Z,0.82
2023-11-26T10:40:58.138Z,0.89
2023-11-26T10:43:25.103Z,0.85
2023-11-26T10:45:52.735Z,0.98
2023-11-26T10:48:21.789Z,1.10
2023-11-26T10:51:24.107Z,1.17
2023-11-26T10:54:11.154Z,1.25
2023-11-26T10:56:39.932Z,1.28
2023-11-26T10:59:11.048Z,1.31
2023-11-26T11:01:38.853Z,1.34
2023-11-26T11:04:13.470Z,1.36
2023-11-26T11:06:40.639Z,1.36
2023-11-26T11:09:14.251Z,1.36
2023-11-26T11:12:05.939Z,1.41
2023-11-26T11:14:33.729Z,1.42
2023-11-26T11:17:00.471Z,1.51
2023-11-26T11:19:50.879Z,1.61
2023-11-26T11:22:18.032Z,1.67
2023-11-26T11:24:44.745Z,1.63
2023-11-26T11:27:12.414Z,1.70
2023-11-26T11:29:40.137Z,1.75
2023-11-26T11:32:06.983Z,1.77
2023-11-26T11:34:33.859Z,1.78
2023-11-26T11:37:02.638Z,1.77
2023-11-26T11:39:48.551Z,1.67
2023-11-26T11:42:18.771Z,1.59
2023-11-26T11:44:45.935Z,1.56
2023-11-26T11:47:33.388Z,1.53
2023-11-26T11:50:00.188Z,1.48
2023-11-26T11:52:27.135Z,1.43
2023-11-26T11:55:15.464Z,1.45
2023-11-26T11:57:52.956Z,1.43
2023-11-26T12:00:23.800Z,1.48
2023-11-26T12:02:51.266Z,1.44
2023-11-26T12:05:28.828Z,1.37
2023-11-26T12:07:59.082Z,1.42
2023-11-26T12:10:27.829Z,1.43
2023-11-26T12:13:08.802Z,1.42
2023-11-26T12:15:36.894Z,1.36
2023-11-26T12:18:03.763Z,1.36
2023-11-26T12:20:30.630Z,1.41
2023-11-26T12:22:57.605Z,1.39
2023-11-26T12:25:24.657Z,1.28
2023-11-26T12:28:04.238Z,1.31
2023-11-26T12:30:31.431Z,1.28
2023-11-26T12:32:58.955Z,1.31
2023-11-26T12:35:28.773Z,1.28
2023-11-26T12:38:01.068Z,1.24
2023-11-26T12:40:31.706Z,1.25
2023-11-26T12:42:58.900Z,1.26
2023-11-26T12:45:26.860Z,1.23
2023-11-26T12:47:55.402Z,1.25
2023-11-26T12:50:22.916Z,1.15
2023-11-26T12:52:50.948Z,1.06
2023-11-26T12:55:19.286Z,0.92
2023-11-26T12:57:46.297Z,0.89
2023-11-26T13:00:15.520Z,0.72
2023-11-26T13:02:49.679Z,0.84
2023-11-26T13:05:30.466Z,0.78
2023-11-26T13:07:58.536Z,0.82
2023-11-26T13:10:59.312Z,0.79
2023-11-26T13:13:29.664Z,0.78
2023-11-26T13:15:58.324Z,0.78
2023-11-26T13:18:26.904Z,0.80
2023-11-26T13:20:57.488Z,0.75
2023-11-26T13:23:26.050Z,0.72
2023-11-26T13:25:53.450Z,0.70
2023-11-26T13:28:21.248Z,0.76
2023-11-26T13:30:48.746Z,0.70
2023-11-26T13:33:15.995Z,0.73
2023-11-26T13:35:44.605Z,0.58
2023-11-26T13:38:15.233Z,0.69
2023-11-26T13:40:43.937Z,0.67
2023-11-26T13:43:13.280Z,0.61
2023-11-26T13:45:42.130Z,0.59
2023-11-26T13:48:11.800Z,0.42
2023-11-26T13:50:39.865Z,0.30
2023-11-26T13:53:08.067Z,0.26
2023-11-26T13:55:35.425Z,0.21
2023-11-26T13:58:03.792Z,0.17
2023-11-26T14:00:32.907Z,0.15
2023-11-26T14:03:00.988Z,0.14
2023-11-26T14:05:28.385Z,0.03
2023-11-26T14:07:55.396Z,0.14
2023-11-26T14:10:23.788Z,0.04
2023-11-26T14:12:52.679Z,0.04
2023-11-26T14:15:20.937Z,-0.08
2023-11-26T14:17:51.723Z,-0.06
2023-11-26T14:20:19.915Z,-0.12
2023-11-26T14:22:48.634Z,-0.15
2023-11-26T14:25:17.122Z,-0.17
2023-11-26T14:27:45.501Z,-0.19
2023-11-26T14:30:14.198Z,-0.21
2023-11-26T14:32:45.199Z,-0.29
2023-11-26T14:35:13.119Z,-0.31
2023-11-26T14:37:40.172Z,-0.44
2023-11-26T14:40:19.455Z,-0.54
2023-11-26T14:42:47.209Z,-0.66
2023-11-26T14:45:16.165Z,-0.73
2023-11-26T14:47:46.615Z,-0.77
2023-11-26T14:50:18.768Z,-0.78
2023-11-26T14:52:47.204Z,-0.75
2023-11-26T14:55:16.365Z,-0.88
2023-11-26T14:57:44.235Z,-0.77
2023-11-26T15:00:12.237Z,-0.96
2023-11-26T15:02:39.588Z,-0.78
2023-11-26T15:05:08.095Z,-1.00
2023-11-26T15:07:35.074Z,-0.80
2023-11-26T15:10:01.849Z,-0.79
2023-11-26T15:12:28.646Z,-0.79
2023-11-26T15:14:55.333Z,-0.78
2023-11-26T15:17:22.041Z,-0.75
2023-11-26T15:19:51.073Z,-0.70
2023-11-26T15:22:17.874Z,-0.70
2023-11-26T15:24:48.493Z,-0.66
2023-11-26T15:27:16.478Z,-0.65
2023-11-26T15:29:43.373Z,-0.65
2023-11-26T15:32:12.233Z,-0.65
2023-11-26T15:34:39.778Z,-0.66
2023-11-26T15:37:06.819Z,-0.63
2023-11-26T15:39:33.672Z,-0.62
2023-11-26T15:42:00.884Z,-0.59
2023-11-26T15:44:29.679Z,-0.73
2023-11-26T15:46:57.632Z,-0.59
2023-11-26T15:49:27.555Z,-0.61
2023-11-26T15:51:55.146Z,-0.55
2023-11-26T15:54:22.159Z,-0.57
2023-11-26T15:56:52.278Z,-0.62
2023-11-26T15:59:19.022Z,-0.64
2023-11-26T16:01:46.051Z,-0.64
2023-11-26T16:04:12.820Z,-0.64
2023-11-26T16:06:39.576Z,-0.69
2023-11-26T16:09:06.895Z,-0.63
2023-11-26T16:11:34.277Z,-0.69
2023-11-26T16:14:01.503Z,-0.68
2023-11-26T16:16:28.391Z,-0.73
2023-11-26T16:18:55.255Z,-0.76
2023-11-26T16:21:22.050Z,-0.89
2023-11-26T16:23:49.115Z,-0.76
2023-11-26T16:26:15.931Z,-0.77
2023-11-26T16:28:42.673Z,-0.85
2023-11-26T16:31:10.570Z,-0.82
2023-11-26T16:33:55.756Z,-0.77
2023-11-26T16:36:24.375Z,-0.86
2023-11-26T16:38:53.583Z,-0.93
2023-11-26T16:41:20.764Z,-0.93
2023-11-26T16:43:49.325Z,-0.97
2023-11-26T16:46:18.228Z,-0.97
2023-11-26T16:48:46.388Z,-0.98
2023-11-26T16:51:13.783Z,-1.01
2023-11-26T16:53:40.840Z,-0.98
2023-11-26T16:56:08.834Z,-1.00
2023-11-26T16:58:36.041Z,-1.08
2023-11-26T17:01:04.467Z,-1.00
2023-11-26T17:03:35.169Z,-1.00
2023-11-26T17:06:04.013Z,-1.02
2023-11-26T17:08:31.035Z,-1.06
2023-11-26T17:10:58.889Z,-1.08
2023-11-26T17:13:31.908Z,-1.09
2023-11-26T17:15:58.970Z,-1.13
2023-11-26T17:18:25.781Z,-1.14
2023-11-26T17:20:52.462Z,-1.17
2023-11-26T17:23:19.254Z,-1.22
2023-11-26T17:25:51.117Z,-1.26
2023-11-26T17:28:19.374Z,-1.28
2023-11-26T17:30:49.932Z,-1.31
2023-11-26T17:33:18.002Z,-1.30
2023-11-26T17:35:44.835Z,-1.37
2023-11-26T17:38:13.057Z,-1.34
2023-11-26T17:40:43.275Z,-1.37
2023-11-26T17:43:10.442Z,-1.36
2023-11-26T17:45:37.290Z,-1.57
2023-11-26T17:48:05.035Z,-1.50
2023-11-26T17:50:31.957Z,-1.55
2023-11-26T17:53:07.230Z,-1.50
2023-11-26T17:55:39.168Z,-1.55
2023-11-26T17:58:06.001Z,-1.62
2023-11-26T18:00:34.472Z,-1.63
2023-11-26T18:03:03.757Z,-1.64
2023-11-26T18:05:30.515Z,-1.65
2023-11-26T18:07:58.556Z,-1.65
2023-11-26T18:10:25.653Z,-1.66
2023-11-26T18:12:55.398Z,-1.72
2023-11-26T18:15:22.175Z,-1.75
2023-11-26T18:17:50.455Z,-1.76
2023-11-26T18:20:18.416Z,-1.79
2023-11-26T18:22:45.427Z,-1.78
2023-11-26T18:25:13.308Z,-1.79
2023-11-26T18:27:40.570Z,-1.82
2023-11-26T18:30:10.376Z,-1.80
2023-11-26T18:32:37.626Z,-1.84
2023-11-26T18:35:07.226Z,-1.84
2023-11-26T18:37:33.895Z,-1.89
2023-11-26T18:40:00.937Z,-1.88
2023-11-26T18:42:27.912Z,-1.85
2023-11-26T18:44:54.647Z,-1.85
2023-11-26T18:47:21.917Z,-1.83
2023-11-26T18:49:49.421Z,-1.89
2023-11-26T18:52:18.226Z,-1.89
2023-11-26T18:54:45.708Z,-1.88
2023-11-26T18:57:12.810Z,-1.91
2023-11-26T18:59:43.411Z,-1.93
2023-11-26T19:02:12.727Z,-1.96
2023-11-26T19:04:39.710Z,-1.97
2023-11-26T19:07:07.110Z,-2.00
2023-11-26T19:09:34.316Z,-2.02
2023-11-26T19:12:01.235Z,-2.14
2023-11-26T19:14:28.041Z,-2.05
2023-11-26T19:17:01.824Z,-2.07
2023-11-26T19:19:28.890Z,-2.02
2023-11-26T19:21:56.090Z,-2.07
2023-11-26T19:24:22.863Z,-2.09
2023-11-26T19:30:17.541Z,-2.02
2023-11-26T19:32:44.239Z,-2.01
2023-11-26T19:41:27.762Z,-2.34
2023-11-26T19:44:16.549Z,-1.96
2023-11-26T19:46:43.509Z,-2.17
2023-11-26T19:49:12.506Z,-2.03
2023-11-26T19:51:46.400Z,-2.10
2023-11-26T19:54:16.614Z,-2.01
2023-11-26T19:56:47.691Z,-1.97
2023-11-26T19:59:14.689Z,-1.99
2023-11-26T20:01:41.426Z,-2.06
2023-11-26T20:04:11.002Z,-1.97
2023-11-26T20:06:40.602Z,-1.95
2023-11-26T20:09:10.576Z,-2.09
2023-11-26T20:11:37.393Z,-2.03
2023-11-26T20:14:07.086Z,-2.05
2023-11-26T20:16:37.762Z,-2.02
2023-11-26T20:19:04.962Z,-1.93
2023-11-26T20:21:33.373Z,-1.99
2023-11-26T20:24:00.290Z,-1.92
2023-11-26T20:26:27.403Z,-1.96
2023-11-26T20:28:54.085Z,-1.90
2023-11-26T20:31:21.083Z,-1.96
2023-11-26T20:33:48.205Z,-1.96
2023-11-26T20:36:22.905Z,-1.99
2023-11-26T20:38:50.055Z,-1.97
2023-11-26T20:41:16.846Z,-1.96
2023-11-26T20:43:44.319Z,-1.97
2023-11-26T20:46:20.014Z,-2.07
2023-11-26T20:48:50.242Z,-2.11
2023-11-26T20:51:26.578Z,-2.10
2023-11-26T20:53:56.558Z,-2.07
2023-11-26T20:56:24.672Z,-2.14
2023-11-26T20:58:51.792Z,-2.10
2023-11-26T21:01:18.532Z,-2.11
2023-11-26T21:03:46.875Z,-2.04
2023-11-26T21:06:14.666Z,-2.08
2023-11-26T21:08:42.014Z,-2.13
2023-11-26T21:11:10.956Z,-2.21
2023-11-26T21:13:39.110Z,-2.22
2023-11-26T21:16:07.434Z,-2.24
2023-11-26T21:18:34.992Z,-2.29
2023-11-26T21:21:02.301Z,-2.25
2023-11-26T21:23:29.069Z,-2.29
2023-11-26T21:25:55.910Z,-2.32
2023-11-26T21:28:22.729Z,-2.36
2023-11-26T21:30:49.713Z,-2.48
2023-11-26T21:33:19.157Z,-2.40
2023-11-26T21:35:46.330Z,-2.42
2023-11-26T21:38:13.091Z,-2.52
2023-11-26T21:40:45.501Z,-2.51
2023-11-26T21:43:17.474Z,-2.47
2023-11-26T21:45:44.584Z,-2.48
2023-11-26T21:48:19.116Z,-2.49
2023-11-26T21:50:46.697Z,-2.51
2023-11-26T21:53:13.831Z,-2.55
2023-11-26T21:55:40.689Z,-2.58
2023-11-26T21:58:07.465Z,-2.61
2023-11-26T22:00:34.647Z,-2.62
2023-11-26T22:03:01.548Z,-2.69
2023-11-26T22:05:28.700Z,-2.77
2023-11-26T22:07:55.434Z,-2.69
2023-11-26T22:10:22.317Z,-2.72
2023-11-26T22:12:50.517Z,-2.77
2023-11-26T22:15:17.545Z,-2.85
2023-11-26T22:17:44.487Z,-2.93
2023-11-26T22:20:12.444Z,-3.08
2023-11-26T22:22:42.060Z,-2.87
2023-11-26T22:25:10.534Z,-3.09
2023-11-26T22:27:37.472Z,-2.94
2023-11-26T22:30:07.411Z,-2.98
2023-11-26T22:32:35.698Z,-3.03
2023-11-26T22:35:02.978Z,-3.12
2023-11-26T22:37:29.667Z,-3.06
2023-11-26T22:39:56.507Z,-3.02
2023-11-26T22:42:23.294Z,-3.11
2023-11-26T22:44:50.003Z,-3.06
2023-11-26T22:47:16.924Z,-3.10
2023-11-26T22:49:43.677Z,-3.17
2023-11-26T22:52:10.735Z,-3.16
2023-11-26T22:54:37.692Z,-3.16
2023-11-26T22:57:04.755Z,-3.20
2023-11-26T22:59:31.448Z,-3.19
2023-11-26T23:01:58.456Z,-3.17
2023-11-26T23:04:25.436Z,-3.16
2023-11-26T23:06:52.101Z,-3.23
2023-11-26T23:09:19.141Z,-3.20
2023-11-26T23:11:47.507Z,-3.24
2023-11-26T23:14:14.291Z,-3.19
2023-11-26T23:16:41.266Z,-3.26
2023-11-26T23:19:08.324Z,-3.19
2023-11-26T23:21:35.016Z,-3.37
2023-11-26T23:24:01.850Z,-3.23
2023-11-26T23:26:28.984Z,-3.31
2023-11-26T23:28:55.684Z,-3.31
2023-11-26T23:31:23.612Z,-3.28
2023-11-26T23:33:51.179Z,-3.33
2023-11-26T23:36:18.322Z,-3.28
2023-11-26T23:38:45.318Z,-3.27
2023-11-26T23:41:12.927Z,-3.24
2023-11-26T23:43:41.005Z,-3.24
2023-11-26T23:46:08.516Z,-3.30
2023-11-26T23:48:35.405Z,-3.33
2023-11-26T23:51:02.203Z,-3.24
2023-11-26T23:53:29.224Z,-3.27
2023-11-26T23:55:56.016Z,-3.31
2023-11-26T23:58:22.722Z,-3.33
